DLH409 SKBO-EDDF
Flight info
| Callsign | DLH409 |
|---|---|
| Flight time | N/A |
| Altitude | 37000 |
| Route | OSUSU4R KOVBU UW1 ENPUT UG431 ALCOT UL325 PJG UM576 MILOK M576 OBIKE/M084F370 M576 RKDIA DCT 25N055W 29N050W 34N040W 39N030W 43N020W DCT PASAS DCT SIVIR/M084F360 UN460 RIVAK/N0480F370 DCT AKEMO/N0470F360 DCT GIGOT DCT OBATO UM163 TSU UN858 OQQAL DCT RANUX/N0465F350 DCT VALEK DCT LUTAX DCT DIK T856 NIVNU T847 IMCOM IMCOM1D |
| Aircraft | A359/H-SDE2E3GHIJ3J4J5LM1ORWXY/LB1D1 |
Departure
| Time | 2026-04-30 21:18 |
|---|---|
| Airport | El Dorado International Airport (SKBO) |
Arrival
| Time | N/A |
|---|---|
| Airport | Frankfurt Main Airport (EDDF) |
| Time | Latitude | Longitude | Altitude | Speed | Heading |
|---|---|---|---|---|---|
| 2026-04-30 20:50 | 4.70024 | -74.14160 | 8369 ft | 0 kts | 217° |
| 2026-04-30 20:58 | 4.70025 | -74.14159 | 8369 ft | 0 kts | 217° |
| 2026-04-30 20:59 | 4.70047 | -74.14142 | 8369 ft | 2 kts | 227° |
| 2026-04-30 20:59 | 4.70056 | -74.14130 | 8369 ft | 2 kts | 246° |
| 2026-04-30 21:00 | 4.70061 | -74.14104 | 8369 ft | 2 kts | 274° |
| 2026-04-30 21:00 | 4.70052 | -74.14075 | 8369 ft | 1 kts | 306° |
| 2026-04-30 21:01 | 4.70049 | -74.14072 | 8369 ft | 0 kts | 307° |
| 2026-04-30 21:05 | 4.70050 | -74.14072 | 8369 ft | 0 kts | 308° |
| 2026-04-30 21:05 | 4.70051 | -74.14074 | 8369 ft | 0 kts | 308° |
| 2026-04-30 21:05 | 4.70053 | -74.14076 | 8369 ft | 0 kts | 308° |
| 2026-04-30 21:06 | 4.70061 | -74.14087 | 8369 ft | 4 kts | 308° |
| 2026-04-30 21:06 | 4.70091 | -74.14127 | 8369 ft | 9 kts | 308° |
| 2026-04-30 21:06 | 4.70144 | -74.14195 | 8369 ft | 13 kts | 311° |
| 2026-04-30 21:06 | 4.70227 | -74.14213 | 8369 ft | 11 kts | 348° |
| 2026-04-30 21:07 | 4.70288 | -74.14260 | 8369 ft | 9 kts | 304° |
| 2026-04-30 21:07 | 4.70326 | -74.14315 | 8369 ft | 9 kts | 304° |
| 2026-04-30 21:07 | 4.70360 | -74.14363 | 8369 ft | 8 kts | 306° |
| 2026-04-30 21:07 | 4.70401 | -74.14394 | 8369 ft | 7 kts | 345° |
| 2026-04-30 21:08 | 4.70454 | -74.14400 | 8369 ft | 7 kts | 345° |
| 2026-04-30 21:08 | 4.70503 | -74.14434 | 8369 ft | 10 kts | 312° |
| 2026-04-30 21:08 | 4.70552 | -74.14497 | 8369 ft | 13 kts | 308° |
| 2026-04-30 21:08 | 4.70615 | -74.14578 | 8369 ft | 16 kts | 307° |
| 2026-04-30 21:09 | 4.70685 | -74.14670 | 8369 ft | 19 kts | 307° |
| 2026-04-30 21:09 | 4.70734 | -74.14736 | 8369 ft | 20 kts | 307° |
| 2026-04-30 21:09 | 4.70837 | -74.14874 | 8369 ft | 23 kts | 307° |
| 2026-04-30 21:09 | 4.70973 | -74.15060 | 8369 ft | 23 kts | 307° |
| 2026-04-30 21:10 | 4.71073 | -74.15184 | 8369 ft | 22 kts | 315° |
| 2026-04-30 21:10 | 4.71213 | -74.15223 | 8369 ft | 20 kts | 354° |
| 2026-04-30 21:10 | 4.71317 | -74.15220 | 8369 ft | 4 kts | 21° |
| 2026-04-30 21:10 | 4.71319 | -74.15219 | 8369 ft | 0 kts | 27° |
| 2026-04-30 21:11 | 4.71320 | -74.15218 | 8369 ft | 0 kts | 40° |
| 2026-04-30 21:11 | 4.71324 | -74.15196 | 8369 ft | 6 kts | 95° |
| 2026-04-30 21:11 | 4.71313 | -74.15173 | 8369 ft | 0 kts | 127° |
| 2026-04-30 21:16 | 4.71312 | -74.15171 | 8369 ft | 3 kts | 127° |
| 2026-04-30 21:16 | 4.71272 | -74.15119 | 8369 ft | 24 kts | 127° |
| 2026-04-30 21:16 | 4.71135 | -74.14937 | 8369 ft | 68 kts | 127° |
| 2026-04-30 21:17 | 4.70529 | -74.14136 | 8370 ft | 141 kts | 128° |
| 2026-04-30 21:17 | 4.69839 | -74.13227 | 8388 ft | 182 kts | 127° |
| 2026-04-30 21:17 | 4.68912 | -74.11980 | 8796 ft | 193 kts | 128° |
| 2026-04-30 21:18 | 4.68091 | -74.10796 | 9365 ft | 193 kts | 109° |
| 2026-04-30 21:18 | 4.68105 | -74.09486 | 9827 ft | 198 kts | 67° |
| 2026-04-30 21:18 | 4.68987 | -74.08449 | 9984 ft | 217 kts | 31° |
| 2026-04-30 21:18 | 4.70383 | -74.08121 | 9995 ft | 223 kts | 359° |
| 2026-04-30 21:19 | 4.72459 | -74.08118 | 10003 ft | 243 kts | 5° |
| 2026-04-30 21:19 | 4.75513 | -74.07527 | 9991 ft | 246 kts | 17° |
| 2026-04-30 21:19 | 4.77727 | -74.06829 | 9990 ft | 245 kts | 20° |
| 2026-04-30 21:20 | 4.82400 | -74.05245 | 10464 ft | 272 kts | 20° |
| 2026-04-30 21:20 | 4.84228 | -74.04630 | 10718 ft | 284 kts | 20° |
| 2026-04-30 21:20 | 4.86033 | -74.04022 | 10974 ft | 296 kts | 20° |
| 2026-04-30 21:20 | 4.88021 | -74.03350 | 11234 ft | 309 kts | 20° |
| 2026-04-30 21:21 | 4.90118 | -74.02640 | 11496 ft | 322 kts | 20° |
| 2026-04-30 21:21 | 4.92281 | -74.01909 | 11751 ft | 335 kts | 20° |
| 2026-04-30 21:21 | 4.96848 | -74.00362 | 12247 ft | 360 kts | 19° |
| 2026-04-30 21:22 | 4.99244 | -73.99551 | 12591 ft | 368 kts | 19° |
| 2026-04-30 21:22 | 5.06695 | -73.97457 | 14144 ft | 377 kts | 15° |
| 2026-04-30 21:23 | 5.09249 | -73.96830 | 14715 ft | 380 kts | 15° |
| 2026-04-30 21:23 | 5.11571 | -73.96259 | 15255 ft | 381 kts | 15° |
| 2026-04-30 21:23 | 5.16859 | -73.94953 | 16367 ft | 387 kts | 15° |
| 2026-04-30 21:24 | 5.19432 | -73.94188 | 16833 ft | 389 kts | 22° |
| 2026-04-30 21:24 | 5.21924 | -73.93154 | 17297 ft | 392 kts | 26° |
| 2026-04-30 21:24 | 5.24416 | -73.92051 | 17770 ft | 395 kts | 26° |
| 2026-04-30 21:24 | 5.26932 | -73.90936 | 18160 ft | 400 kts | 25° |
| 2026-04-30 21:25 | 5.32090 | -73.88696 | 18544 ft | 420 kts | 25° |
| 2026-04-30 21:25 | 5.34655 | -73.87600 | 18814 ft | 427 kts | 25° |
| 2026-04-30 21:25 | 5.37385 | -73.86440 | 19225 ft | 430 kts | 25° |
| 2026-04-30 21:26 | 5.42889 | -73.84106 | 20087 ft | 435 kts | 25° |
| 2026-04-30 21:26 | 5.45661 | -73.82933 | 20503 ft | 438 kts | 25° |
| 2026-04-30 21:27 | 5.51296 | -73.80546 | 21310 ft | 444 kts | 25° |
| 2026-04-30 21:27 | 5.54131 | -73.79344 | 21651 ft | 447 kts | 25° |
| 2026-04-30 21:27 | 5.56977 | -73.78139 | 22002 ft | 450 kts | 25° |
| 2026-04-30 21:28 | 5.62670 | -73.75726 | 22720 ft | 455 kts | 25° |
| 2026-04-30 21:28 | 5.65451 | -73.74546 | 23061 ft | 457 kts | 25° |
| 2026-04-30 21:28 | 5.71177 | -73.72115 | 23792 ft | 460 kts | 24° |
| 2026-04-30 21:29 | 5.74125 | -73.70864 | 24109 ft | 463 kts | 24° |
| 2026-04-30 21:29 | 5.82979 | -73.67106 | 24963 ft | 473 kts | 24° |
| 2026-04-30 21:30 | 5.88988 | -73.64555 | 25570 ft | 478 kts | 24° |
| 2026-04-30 21:31 | 5.98015 | -73.60513 | 26407 ft | 484 kts | 28° |
| 2026-04-30 21:31 | 6.03764 | -73.57311 | 26900 ft | 488 kts | 30° |
| 2026-04-30 21:32 | 6.09676 | -73.53939 | 27278 ft | 494 kts | 30° |
| 2026-04-30 21:32 | 6.12638 | -73.52258 | 27463 ft | 496 kts | 30° |
| 2026-04-30 21:32 | 6.15633 | -73.50565 | 27658 ft | 498 kts | 30° |
| 2026-04-30 21:32 | 6.18658 | -73.48856 | 27858 ft | 500 kts | 30° |
| 2026-04-30 21:33 | 6.21688 | -73.47143 | 28057 ft | 501 kts | 30° |
| 2026-04-30 21:33 | 6.27746 | -73.43710 | 28433 ft | 504 kts | 29° |
| 2026-04-30 21:33 | 6.30813 | -73.41969 | 28592 ft | 507 kts | 29° |
| 2026-04-30 21:34 | 6.33861 | -73.40240 | 28776 ft | 508 kts | 29° |
| 2026-04-30 21:34 | 6.40016 | -73.36747 | 29175 ft | 511 kts | 29° |
| 2026-04-30 21:34 | 6.43106 | -73.34993 | 29372 ft | 512 kts | 29° |
| 2026-04-30 21:35 | 6.46158 | -73.33250 | 29562 ft | 512 kts | 29° |
| 2026-04-30 21:35 | 6.49234 | -73.31486 | 29757 ft | 513 kts | 29° |
| 2026-04-30 21:35 | 6.52359 | -73.29697 | 29963 ft | 514 kts | 29° |
| 2026-04-30 21:35 | 6.55431 | -73.27930 | 30149 ft | 515 kts | 27° |
| 2026-04-30 21:36 | 6.61589 | -73.24436 | 30373 ft | 519 kts | 28° |
| 2026-04-30 21:37 | 6.71002 | -73.19089 | 30933 ft | 520 kts | 28° |
| 2026-04-30 21:37 | 6.74160 | -73.17292 | 31068 ft | 521 kts | 28° |
| 2026-04-30 21:37 | 6.77335 | -73.15487 | 31205 ft | 522 kts | 28° |
| 2026-04-30 21:37 | 6.80450 | -73.13716 | 31354 ft | 522 kts | 28° |
| 2026-04-30 21:38 | 6.83616 | -73.11915 | 31489 ft | 523 kts | 28° |
| 2026-04-30 21:38 | 6.86787 | -73.10111 | 31611 ft | 524 kts | 28° |
| 2026-04-30 21:38 | 6.89979 | -73.08305 | 31725 ft | 525 kts | 28° |
| 2026-04-30 21:38 | 6.93147 | -73.06554 | 31832 ft | 526 kts | 27° |
| 2026-04-30 21:39 | 6.96370 | -73.04787 | 31936 ft | 527 kts | 27° |
| 2026-04-30 21:39 | 6.99597 | -73.03020 | 32036 ft | 528 kts | 27° |
| 2026-04-30 21:39 | 7.06042 | -72.99485 | 32226 ft | 529 kts | 27° |
| 2026-04-30 21:40 | 7.12492 | -72.95943 | 32402 ft | 531 kts | 27° |
| 2026-04-30 21:40 | 7.18956 | -72.92403 | 32561 ft | 532 kts | 27° |
| 2026-04-30 21:41 | 7.25418 | -72.88855 | 32705 ft | 533 kts | 27° |
| 2026-04-30 21:41 | 7.31941 | -72.85266 | 32840 ft | 534 kts | 27° |
| 2026-04-30 21:42 | 7.38443 | -72.81683 | 32965 ft | 536 kts | 27° |
| 2026-04-30 21:42 | 7.44968 | -72.78085 | 33081 ft | 537 kts | 27° |
| 2026-04-30 21:43 | 7.51461 | -72.74506 | 33226 ft | 537 kts | 27° |
| 2026-04-30 21:43 | 7.58018 | -72.70889 | 33375 ft | 537 kts | 27° |
| 2026-04-30 21:44 | 7.64511 | -72.67306 | 33513 ft | 536 kts | 27° |
| 2026-04-30 21:44 | 7.71059 | -72.63690 | 33655 ft | 536 kts | 27° |
| 2026-04-30 21:45 | 7.77568 | -72.60095 | 33798 ft | 536 kts | 27° |
| 2026-04-30 21:45 | 7.84043 | -72.56516 | 33927 ft | 536 kts | 27° |
| 2026-04-30 21:46 | 7.90544 | -72.52921 | 34059 ft | 536 kts | 27° |
| 2026-04-30 21:46 | 7.97088 | -72.49394 | 34190 ft | 535 kts | 25° |
| 2026-04-30 21:47 | 8.03730 | -72.46025 | 34317 ft | 535 kts | 25° |
| 2026-04-30 21:47 | 8.10251 | -72.42709 | 34477 ft | 534 kts | 25° |
| 2026-04-30 21:48 | 8.13534 | -72.41032 | 34594 ft | 532 kts | 25° |
| 2026-04-30 21:48 | 8.16807 | -72.39359 | 34709 ft | 531 kts | 25° |
| 2026-04-30 21:48 | 8.23313 | -72.35922 | 34862 ft | 530 kts | 26° |
| 2026-04-30 21:49 | 8.29775 | -72.32313 | 34930 ft | 531 kts | 27° |